sensor_id;sensor_type;location;lat;lon;timestamp;P1;durP1;ratioP1;P2;durP2;ratioP2
2434;SDS011;1228;51.022;6.764;2023-04-07T00:02:15;10.87;;;9.43;;
2434;SDS011;1228;51.022;6.764;2023-04-07T00:04:41;16.00;;;9.87;;
2434;SDS011;1228;51.022;6.764;2023-04-07T00:07:06;18.33;;;10.47;;
2434;SDS011;1228;51.022;6.764;2023-04-07T00:09:32;13.07;;;9.33;;
2434;SDS011;1228;51.022;6.764;2023-04-07T00:11:58;14.13;;;9.80;;
2434;SDS011;1228;51.022;6.764;2023-04-07T00:14:26;10.77;;;9.23;;
2434;SDS011;1228;51.022;6.764;2023-04-07T00:16:52;11.93;;;10.33;;
2434;SDS011;1228;51.022;6.764;2023-04-07T00:19:18;13.57;;;9.50;;
2434;SDS011;1228;51.022;6.764;2023-04-07T00:21:44;13.90;;;11.20;;
2434;SDS011;1228;51.022;6.764;2023-04-07T00:24:09;12.93;;;9.13;;
2434;SDS011;1228;51.022;6.764;2023-04-07T00:26:35;11.43;;;10.00;;
2434;SDS011;1228;51.022;6.764;2023-04-07T00:29:01;10.27;;;9.07;;
2434;SDS011;1228;51.022;6.764;2023-04-07T00:31:26;10.63;;;9.53;;
2434;SDS011;1228;51.022;6.764;2023-04-07T00:33:52;11.60;;;9.77;;
2434;SDS011;1228;51.022;6.764;2023-04-07T00:36:18;10.53;;;9.47;;
2434;SDS011;1228;51.022;6.764;2023-04-07T00:38:43;13.50;;;9.13;;
2434;SDS011;1228;51.022;6.764;2023-04-07T00:41:09;13.20;;;9.37;;
2434;SDS011;1228;51.022;6.764;2023-04-07T00:43:35;10.37;;;9.27;;
2434;SDS011;1228;51.022;6.764;2023-04-07T00:46:00;11.50;;;8.70;;
2434;SDS011;1228;51.022;6.764;2023-04-07T00:48:26;11.13;;;10.03;;
2434;SDS011;1228;51.022;6.764;2023-04-07T00:50:51;9.27;;;8.47;;
2434;SDS011;1228;51.022;6.764;2023-04-07T00:53:17;9.50;;;8.60;;
2434;SDS011;1228;51.022;6.764;2023-04-07T00:55:44;9.83;;;8.83;;
2434;SDS011;1228;51.022;6.764;2023-04-07T00:58:10;9.60;;;8.50;;
2434;SDS011;1228;51.022;6.764;2023-04-07T01:00:40;11.03;;;9.60;;
2434;SDS011;1228;51.022;6.764;2023-04-07T01:03:22;12.30;;;9.77;;
2434;SDS011;1228;51.022;6.764;2023-04-07T01:05:57;11.57;;;9.97;;
2434;SDS011;1228;51.022;6.764;2023-04-07T01:11:02;13.27;;;10.87;;
2434;SDS011;1228;51.022;6.764;2023-04-07T01:13:52;17.87;;;10.57;;
2434;SDS011;1228;51.022;6.764;2023-04-07T01:16:22;11.10;;;8.90;;
2434;SDS011;1228;51.022;6.764;2023-04-07T01:18:49;11.80;;;10.37;;
2434;SDS011;1228;51.022;6.764;2023-04-07T01:21:18;13.13;;;10.90;;
2434;SDS011;1228;51.022;6.764;2023-04-07T01:26:48;15.23;;;11.90;;
2434;SDS011;1228;51.022;6.764;2023-04-07T01:29:36;16.80;;;12.63;;
2434;SDS011;1228;51.022;6.764;2023-04-07T01:32:05;19.27;;;12.87;;
2434;SDS011;1228;51.022;6.764;2023-04-07T01:34:33;16.43;;;11.67;;
2434;SDS011;1228;51.022;6.764;2023-04-07T01:37:02;20.23;;;12.73;;
2434;SDS011;1228;51.022;6.764;2023-04-07T01:39:29;17.37;;;13.10;;
2434;SDS011;1228;51.022;6.764;2023-04-07T01:41:55;20.87;;;13.03;;
2434;SDS011;1228;51.022;6.764;2023-04-07T01:44:22;18.13;;;14.60;;
2434;SDS011;1228;51.022;6.764;2023-04-07T01:46:49;19.77;;;14.33;;
2434;SDS011;1228;51.022;6.764;2023-04-07T01:49:15;20.57;;;12.80;;
2434;SDS011;1228;51.022;6.764;2023-04-07T01:51:41;23.87;;;14.40;;
2434;SDS011;1228;51.022;6.764;2023-04-07T01:54:08;19.90;;;13.23;;
2434;SDS011;1228;51.022;6.764;2023-04-07T01:56:34;19.73;;;12.70;;
2434;SDS011;1228;51.022;6.764;2023-04-07T01:59:00;19.97;;;13.90;;
2434;SDS011;1228;51.022;6.764;2023-04-07T02:01:25;18.83;;;13.77;;
2434;SDS011;1228;51.022;6.764;2023-04-07T02:06:48;22.80;;;14.03;;
2434;SDS011;1228;51.022;6.764;2023-04-07T02:09:20;27.00;;;15.07;;
2434;SDS011;1228;51.022;6.764;2023-04-07T02:11:48;23.37;;;13.73;;
2434;SDS011;1228;51.022;6.764;2023-04-07T02:14:15;22.57;;;14.00;;
2434;SDS011;1228;51.022;6.764;2023-04-07T02:16:42;19.47;;;13.53;;
2434;SDS011;1228;51.022;6.764;2023-04-07T02:19:09;27.47;;;16.07;;
2434;SDS011;1228;51.022;6.764;2023-04-07T02:21:35;21.33;;;13.83;;
2434;SDS011;1228;51.022;6.764;2023-04-07T02:24:06;18.13;;;12.17;;
2434;SDS011;1228;51.022;6.764;2023-04-07T02:26:35;22.10;;;13.90;;
2434;SDS011;1228;51.022;6.764;2023-04-07T02:29:01;27.13;;;12.53;;
2434;SDS011;1228;51.022;6.764;2023-04-07T02:31:27;24.53;;;14.30;;
2434;SDS011;1228;51.022;6.764;2023-04-07T02:33:53;20.23;;;14.57;;
2434;SDS011;1228;51.022;6.764;2023-04-07T02:36:18;23.37;;;15.90;;
2434;SDS011;1228;51.022;6.764;2023-04-07T02:38:44;26.03;;;15.17;;
2434;SDS011;1228;51.022;6.764;2023-04-07T02:41:10;19.97;;;15.40;;
2434;SDS011;1228;51.022;6.764;2023-04-07T02:43:35;22.03;;;15.27;;
2434;SDS011;1228;51.022;6.764;2023-04-07T02:46:01;25.33;;;16.60;;
2434;SDS011;1228;51.022;6.764;2023-04-07T02:48:26;22.77;;;15.53;;
2434;SDS011;1228;51.022;6.764;2023-04-07T02:50:52;22.67;;;13.60;;
2434;SDS011;1228;51.022;6.764;2023-04-07T02:53:18;26.90;;;16.13;;
2434;SDS011;1228;51.022;6.764;2023-04-07T02:55:43;27.73;;;15.97;;
2434;SDS011;1228;51.022;6.764;2023-04-07T02:58:09;21.73;;;14.73;;
2434;SDS011;1228;51.022;6.764;2023-04-07T03:00:35;26.37;;;16.27;;
2434;SDS011;1228;51.022;6.764;2023-04-07T03:03:00;26.03;;;16.27;;
2434;SDS011;1228;51.022;6.764;2023-04-07T03:05:26;25.27;;;16.60;;
2434;SDS011;1228;51.022;6.764;2023-04-07T03:07:52;27.20;;;14.73;;
2434;SDS011;1228;51.022;6.764;2023-04-07T03:10:17;22.13;;;13.17;;
2434;SDS011;1228;51.022;6.764;2023-04-07T03:12:43;18.90;;;13.77;;
2434;SDS011;1228;51.022;6.764;2023-04-07T03:15:08;21.60;;;14.97;;
2434;SDS011;1228;51.022;6.764;2023-04-07T03:17:34;24.27;;;14.20;;
2434;SDS011;1228;51.022;6.764;2023-04-07T03:20:00;26.77;;;15.63;;
2434;SDS011;1228;51.022;6.764;2023-04-07T03:22:26;21.40;;;15.53;;
2434;SDS011;1228;51.022;6.764;2023-04-07T03:24:51;21.97;;;16.10;;
2434;SDS011;1228;51.022;6.764;2023-04-07T03:27:17;28.03;;;15.63;;
2434;SDS011;1228;51.022;6.764;2023-04-07T03:29:44;20.60;;;12.87;;
2434;SDS011;1228;51.022;6.764;2023-04-07T03:32:10;21.83;;;14.17;;
2434;SDS011;1228;51.022;6.764;2023-04-07T03:34:36;20.70;;;14.10;;
2434;SDS011;1228;51.022;6.764;2023-04-07T03:37:02;28.47;;;16.17;;
2434;SDS011;1228;51.022;6.764;2023-04-07T03:39:27;22.30;;;13.67;;
2434;SDS011;1228;51.022;6.764;2023-04-07T03:41:53;24.67;;;13.40;;
2434;SDS011;1228;51.022;6.764;2023-04-07T03:44:18;19.67;;;13.90;;
2434;SDS011;1228;51.022;6.764;2023-04-07T03:46:44;16.77;;;12.73;;
2434;SDS011;1228;51.022;6.764;2023-04-07T03:49:12;18.43;;;14.50;;
2434;SDS011;1228;51.022;6.764;2023-04-07T03:51:38;25.00;;;14.13;;
2434;SDS011;1228;51.022;6.764;2023-04-07T03:54:03;30.63;;;16.43;;
2434;SDS011;1228;51.022;6.764;2023-04-07T03:56:29;24.77;;;14.67;;
2434;SDS011;1228;51.022;6.764;2023-04-07T03:58:55;22.07;;;14.27;;
2434;SDS011;1228;51.022;6.764;2023-04-07T04:01:21;25.87;;;14.73;;
2434;SDS011;1228;51.022;6.764;2023-04-07T04:03:48;29.17;;;15.77;;
2434;SDS011;1228;51.022;6.764;2023-04-07T04:06:13;22.23;;;14.03;;
2434;SDS011;1228;51.022;6.764;2023-04-07T04:08:39;22.37;;;13.67;;
2434;SDS011;1228;51.022;6.764;2023-04-07T04:11:05;41.00;;;17.20;;
2434;SDS011;1228;51.022;6.764;2023-04-07T04:13:30;27.50;;;15.27;;
2434;SDS011;1228;51.022;6.764;2023-04-07T04:15:56;30.47;;;14.93;;
2434;SDS011;1228;51.022;6.764;2023-04-07T04:18:22;23.27;;;15.60;;
2434;SDS011;1228;51.022;6.764;2023-04-07T04:20:47;27.63;;;16.27;;
2434;SDS011;1228;51.022;6.764;2023-04-07T04:23:13;28.70;;;16.37;;
2434;SDS011;1228;51.022;6.764;2023-04-07T04:25:39;23.47;;;13.93;;
2434;SDS011;1228;51.022;6.764;2023-04-07T04:28:05;23.47;;;14.73;;
2434;SDS011;1228;51.022;6.764;2023-04-07T04:30:31;21.90;;;13.90;;
2434;SDS011;1228;51.022;6.764;2023-04-07T04:32:57;20.50;;;13.43;;
2434;SDS011;1228;51.022;6.764;2023-04-07T04:35:22;19.37;;;14.03;;
2434;SDS011;1228;51.022;6.764;2023-04-07T04:37:48;21.13;;;13.50;;
2434;SDS011;1228;51.022;6.764;2023-04-07T04:40:14;25.70;;;13.27;;
2434;SDS011;1228;51.022;6.764;2023-04-07T04:42:39;19.27;;;13.63;;
2434;SDS011;1228;51.022;6.764;2023-04-07T04:45:05;19.00;;;12.53;;
2434;SDS011;1228;51.022;6.764;2023-04-07T04:47:31;23.37;;;12.97;;
2434;SDS011;1228;51.022;6.764;2023-04-07T04:49:57;18.30;;;12.37;;
2434;SDS011;1228;51.022;6.764;2023-04-07T04:52:23;15.43;;;10.70;;
2434;SDS011;1228;51.022;6.764;2023-04-07T04:54:48;16.07;;;11.40;;
2434;SDS011;1228;51.022;6.764;2023-04-07T04:57:14;15.07;;;9.93;;
2434;SDS011;1228;51.022;6.764;2023-04-07T04:59:40;20.57;;;11.57;;
2434;SDS011;1228;51.022;6.764;2023-04-07T05:02:06;16.77;;;10.80;;
2434;SDS011;1228;51.022;6.764;2023-04-07T05:04:32;16.80;;;12.83;;
2434;SDS011;1228;51.022;6.764;2023-04-07T05:06:58;15.40;;;11.40;;
2434;SDS011;1228;51.022;6.764;2023-04-07T05:09:23;15.50;;;10.83;;
2434;SDS011;1228;51.022;6.764;2023-04-07T05:11:49;11.23;;;9.70;;
2434;SDS011;1228;51.022;6.764;2023-04-07T05:14:14;15.77;;;10.93;;
2434;SDS011;1228;51.022;6.764;2023-04-07T05:16:40;11.37;;;8.30;;
2434;SDS011;1228;51.022;6.764;2023-04-07T05:19:06;17.70;;;11.87;;
2434;SDS011;1228;51.022;6.764;2023-04-07T05:21:31;15.73;;;10.50;;
2434;SDS011;1228;51.022;6.764;2023-04-07T05:23:57;17.30;;;10.20;;
2434;SDS011;1228;51.022;6.764;2023-04-07T05:26:22;14.90;;;10.67;;
2434;SDS011;1228;51.022;6.764;2023-04-07T05:28:48;17.93;;;9.70;;
2434;SDS011;1228;51.022;6.764;2023-04-07T05:31:13;13.83;;;9.13;;
2434;SDS011;1228;51.022;6.764;2023-04-07T05:33:39;10.33;;;9.10;;
2434;SDS011;1228;51.022;6.764;2023-04-07T05:36:05;17.00;;;10.37;;
2434;SDS011;1228;51.022;6.764;2023-04-07T05:38:31;15.23;;;10.40;;
2434;SDS011;1228;51.022;6.764;2023-04-07T05:40:56;17.03;;;9.70;;
2434;SDS011;1228;51.022;6.764;2023-04-07T05:43:22;15.50;;;8.90;;
2434;SDS011;1228;51.022;6.764;2023-04-07T05:45:47;14.30;;;8.93;;
2434;SDS011;1228;51.022;6.764;2023-04-07T05:48:13;12.23;;;9.83;;
2434;SDS011;1228;51.022;6.764;2023-04-07T05:50:38;13.27;;;9.67;;
2434;SDS011;1228;51.022;6.764;2023-04-07T05:53:04;14.80;;;9.80;;
2434;SDS011;1228;51.022;6.764;2023-04-07T05:55:30;8.77;;;7.90;;
2434;SDS011;1228;51.022;6.764;2023-04-07T05:57:55;13.80;;;8.67;;
2434;SDS011;1228;51.022;6.764;2023-04-07T06:00:22;12.20;;;8.97;;
2434;SDS011;1228;51.022;6.764;2023-04-07T06:02:47;11.53;;;8.53;;
2434;SDS011;1228;51.022;6.764;2023-04-07T06:05:13;11.77;;;8.27;;
2434;SDS011;1228;51.022;6.764;2023-04-07T06:07:38;8.13;;;7.40;;
2434;SDS011;1228;51.022;6.764;2023-04-07T06:10:04;7.47;;;6.77;;
2434;SDS011;1228;51.022;6.764;2023-04-07T06:12:30;10.40;;;7.70;;
2434;SDS011;1228;51.022;6.764;2023-04-07T06:14:56;11.57;;;7.83;;
2434;SDS011;1228;51.022;6.764;2023-04-07T06:17:22;8.17;;;7.57;;
2434;SDS011;1228;51.022;6.764;2023-04-07T06:19:48;7.33;;;6.83;;
2434;SDS011;1228;51.022;6.764;2023-04-07T06:22:14;11.10;;;7.43;;
2434;SDS011;1228;51.022;6.764;2023-04-07T06:24:40;7.57;;;7.00;;
2434;SDS011;1228;51.022;6.764;2023-04-07T06:27:06;8.60;;;7.70;;
2434;SDS011;1228;51.022;6.764;2023-04-07T06:29:32;13.23;;;8.13;;
2434;SDS011;1228;51.022;6.764;2023-04-07T06:31:58;7.63;;;6.83;;
2434;SDS011;1228;51.022;6.764;2023-04-07T06:34:24;7.77;;;7.17;;
2434;SDS011;1228;51.022;6.764;2023-04-07T06:36:50;8.10;;;7.30;;
2434;SDS011;1228;51.022;6.764;2023-04-07T06:39:16;6.87;;;6.30;;
2434;SDS011;1228;51.022;6.764;2023-04-07T06:41:41;7.83;;;6.60;;
2434;SDS011;1228;51.022;6.764;2023-04-07T06:44:10;9.53;;;7.37;;
2434;SDS011;1228;51.022;6.764;2023-04-07T06:46:36;7.87;;;7.07;;
2434;SDS011;1228;51.022;6.764;2023-04-07T06:49:02;10.33;;;7.30;;
2434;SDS011;1228;51.022;6.764;2023-04-07T06:51:27;8.37;;;7.57;;
2434;SDS011;1228;51.022;6.764;2023-04-07T06:53:53;11.70;;;7.73;;
2434;SDS011;1228;51.022;6.764;2023-04-07T06:56:19;8.17;;;7.50;;
2434;SDS011;1228;51.022;6.764;2023-04-07T06:58:48;8.23;;;7.43;;
2434;SDS011;1228;51.022;6.764;2023-04-07T07:01:14;9.13;;;8.27;;
2434;SDS011;1228;51.022;6.764;2023-04-07T07:03:40;12.70;;;8.73;;
2434;SDS011;1228;51.022;6.764;2023-04-07T07:06:06;18.30;;;11.40;;
2434;SDS011;1228;51.022;6.764;2023-04-07T07:08:31;12.97;;;9.33;;
2434;SDS011;1228;51.022;6.764;2023-04-07T07:10:57;9.50;;;8.23;;
2434;SDS011;1228;51.022;6.764;2023-04-07T07:13:23;10.13;;;8.83;;
2434;SDS011;1228;51.022;6.764;2023-04-07T07:15:50;7.60;;;7.00;;
2434;SDS011;1228;51.022;6.764;2023-04-07T07:18:17;10.70;;;9.23;;
2434;SDS011;1228;51.022;6.764;2023-04-07T07:20:43;9.03;;;8.13;;
2434;SDS011;1228;51.022;6.764;2023-04-07T07:23:08;8.97;;;7.33;;
2434;SDS011;1228;51.022;6.764;2023-04-07T07:25:34;8.43;;;7.13;;
2434;SDS011;1228;51.022;6.764;2023-04-07T07:28:00;8.63;;;7.87;;
2434;SDS011;1228;51.022;6.764;2023-04-07T07:30:25;9.53;;;8.57;;
2434;SDS011;1228;51.022;6.764;2023-04-07T07:32:51;9.73;;;8.80;;
2434;SDS011;1228;51.022;6.764;2023-04-07T07:35:18;9.80;;;8.47;;
2434;SDS011;1228;51.022;6.764;2023-04-07T07:37:44;8.57;;;7.83;;
2434;SDS011;1228;51.022;6.764;2023-04-07T07:40:10;9.67;;;8.40;;
2434;SDS011;1228;51.022;6.764;2023-04-07T07:42:36;9.90;;;8.30;;
2434;SDS011;1228;51.022;6.764;2023-04-07T07:45:02;10.20;;;8.27;;
2434;SDS011;1228;51.022;6.764;2023-04-07T07:47:28;11.67;;;8.00;;
2434;SDS011;1228;51.022;6.764;2023-04-07T07:49:54;14.40;;;8.53;;
2434;SDS011;1228;51.022;6.764;2023-04-07T07:52:20;7.83;;;7.20;;
2434;SDS011;1228;51.022;6.764;2023-04-07T07:54:46;9.23;;;8.37;;
2434;SDS011;1228;51.022;6.764;2023-04-07T07:57:12;8.73;;;7.83;;
2434;SDS011;1228;51.022;6.764;2023-04-07T07:59:38;8.63;;;7.83;;
2434;SDS011;1228;51.022;6.764;2023-04-07T08:02:05;13.97;;;8.00;;
2434;SDS011;1228;51.022;6.764;2023-04-07T08:04:31;8.10;;;7.30;;
2434;SDS011;1228;51.022;6.764;2023-04-07T08:06:57;8.57;;;7.73;;
2434;SDS011;1228;51.022;6.764;2023-04-07T08:09:22;12.40;;;7.97;;
2434;SDS011;1228;51.022;6.764;2023-04-07T08:11:48;9.60;;;7.00;;
2434;SDS011;1228;51.022;6.764;2023-04-07T08:14:14;8.53;;;7.70;;
2434;SDS011;1228;51.022;6.764;2023-04-07T08:16:40;8.40;;;7.60;;
2434;SDS011;1228;51.022;6.764;2023-04-07T08:19:05;8.90;;;8.13;;
2434;SDS011;1228;51.022;6.764;2023-04-07T08:21:31;8.60;;;7.80;;
2434;SDS011;1228;51.022;6.764;2023-04-07T08:23:56;10.93;;;8.23;;
2434;SDS011;1228;51.022;6.764;2023-04-07T08:26:22;10.00;;;7.70;;
2434;SDS011;1228;51.022;6.764;2023-04-07T08:28:48;7.50;;;6.77;;
2434;SDS011;1228;51.022;6.764;2023-04-07T08:31:17;9.17;;;8.37;;
2434;SDS011;1228;51.022;6.764;2023-04-07T08:33:43;8.13;;;7.33;;
2434;SDS011;1228;51.022;6.764;2023-04-07T08:36:09;13.83;;;8.23;;
2434;SDS011;1228;51.022;6.764;2023-04-07T08:38:35;8.03;;;7.20;;
2434;SDS011;1228;51.022;6.764;2023-04-07T08:41:09;10.60;;;7.50;;
2434;SDS011;1228;51.022;6.764;2023-04-07T08:43:37;8.50;;;7.60;;
2434;SDS011;1228;51.022;6.764;2023-04-07T08:46:04;9.50;;;8.13;;
2434;SDS011;1228;51.022;6.764;2023-04-07T08:48:30;11.33;;;8.70;;
2434;SDS011;1228;51.022;6.764;2023-04-07T08:51:00;17.70;;;10.63;;
2434;SDS011;1228;51.022;6.764;2023-04-07T08:53:33;9.20;;;8.27;;
2434;SDS011;1228;51.022;6.764;2023-04-07T08:56:01;14.97;;;10.90;;
2434;SDS011;1228;51.022;6.764;2023-04-07T08:58:30;8.13;;;7.37;;
2434;SDS011;1228;51.022;6.764;2023-04-07T09:00:55;11.37;;;7.87;;
2434;SDS011;1228;51.022;6.764;2023-04-07T09:03:21;8.50;;;7.77;;
2434;SDS011;1228;51.022;6.764;2023-04-07T09:05:50;8.77;;;7.43;;
2434;SDS011;1228;51.022;6.764;2023-04-07T09:08:16;8.13;;;7.33;;
2434;SDS011;1228;51.022;6.764;2023-04-07T09:10:41;8.30;;;7.50;;
2434;SDS011;1228;51.022;6.764;2023-04-07T09:13:07;11.40;;;8.50;;
2434;SDS011;1228;51.022;6.764;2023-04-07T09:15:32;11.27;;;8.70;;
2434;SDS011;1228;51.022;6.764;2023-04-07T09:17:59;8.60;;;7.77;;
2434;SDS011;1228;51.022;6.764;2023-04-07T09:20:24;8.87;;;6.90;;
2434;SDS011;1228;51.022;6.764;2023-04-07T09:22:50;8.43;;;7.73;;
2434;SDS011;1228;51.022;6.764;2023-04-07T09:28:01;7.17;;;6.50;;
2434;SDS011;1228;51.022;6.764;2023-04-07T09:30:29;9.53;;;7.60;;
2434;SDS011;1228;51.022;6.764;2023-04-07T09:32:56;8.93;;;8.03;;
2434;SDS011;1228;51.022;6.764;2023-04-07T09:35:22;9.00;;;7.30;;
2434;SDS011;1228;51.022;6.764;2023-04-07T09:38:00;14.43;;;8.33;;
2434;SDS011;1228;51.022;6.764;2023-04-07T09:40:25;8.33;;;7.50;;
2434;SDS011;1228;51.022;6.764;2023-04-07T09:42:51;8.67;;;7.77;;
2434;SDS011;1228;51.022;6.764;2023-04-07T09:45:22;8.90;;;8.10;;
2434;SDS011;1228;51.022;6.764;2023-04-07T09:47:49;13.53;;;12.03;;
2434;SDS011;1228;51.022;6.764;2023-04-07T09:50:15;11.73;;;10.73;;
2434;SDS011;1228;51.022;6.764;2023-04-07T09:52:56;9.97;;;9.03;;
2434;SDS011;1228;51.022;6.764;2023-04-07T09:55:22;9.70;;;8.73;;
2434;SDS011;1228;51.022;6.764;2023-04-07T09:57:51;10.93;;;8.93;;
2434;SDS011;1228;51.022;6.764;2023-04-07T10:00:19;8.73;;;7.77;;
2434;SDS011;1228;51.022;6.764;2023-04-07T10:02:45;9.90;;;9.00;;
2434;SDS011;1228;51.022;6.764;2023-04-07T10:05:11;10.30;;;9.20;;
2434;SDS011;1228;51.022;6.764;2023-04-07T10:07:37;10.93;;;8.23;;
2434;SDS011;1228;51.022;6.764;2023-04-07T10:10:04;11.97;;;9.43;;
2434;SDS011;1228;51.022;6.764;2023-04-07T10:12:33;10.27;;;9.27;;
2434;SDS011;1228;51.022;6.764;2023-04-07T10:15:00;11.97;;;9.17;;
2434;SDS011;1228;51.022;6.764;2023-04-07T10:17:27;10.60;;;9.13;;
2434;SDS011;1228;51.022;6.764;2023-04-07T10:19:52;11.97;;;10.30;;
2434;SDS011;1228;51.022;6.764;2023-04-07T10:22:22;11.27;;;9.10;;
2434;SDS011;1228;51.022;6.764;2023-04-07T10:25:05;11.67;;;9.87;;
2434;SDS011;1228;51.022;6.764;2023-04-07T10:27:38;10.53;;;9.23;;
2434;SDS011;1228;51.022;6.764;2023-04-07T10:30:14;12.83;;;9.13;;
2434;SDS011;1228;51.022;6.764;2023-04-07T10:32:51;11.77;;;9.17;;
2434;SDS011;1228;51.022;6.764;2023-04-07T10:35:18;9.30;;;8.13;;
2434;SDS011;1228;51.022;6.764;2023-04-07T10:38:26;11.53;;;9.43;;
2434;SDS011;1228;51.022;6.764;2023-04-07T10:40:37;12.30;;;9.50;;
2434;SDS011;1228;51.022;6.764;2023-04-07T10:43:06;13.37;;;9.07;;
2434;SDS011;1228;51.022;6.764;2023-04-07T10:48:13;14.77;;;10.23;;
2434;SDS011;1228;51.022;6.764;2023-04-07T10:50:39;14.37;;;9.80;;
2434;SDS011;1228;51.022;6.764;2023-04-07T10:53:07;10.93;;;9.70;;
2434;SDS011;1228;51.022;6.764;2023-04-07T10:55:35;16.53;;;9.80;;
2434;SDS011;1228;51.022;6.764;2023-04-07T11:00:39;13.83;;;9.93;;
2434;SDS011;1228;51.022;6.764;2023-04-07T11:03:11;15.03;;;10.73;;
2434;SDS011;1228;51.022;6.764;2023-04-07T11:05:38;13.47;;;9.30;;
2434;SDS011;1228;51.022;6.764;2023-04-07T11:08:05;13.90;;;9.40;;
2434;SDS011;1228;51.022;6.764;2023-04-07T11:10:31;9.50;;;8.03;;
2434;SDS011;1228;51.022;6.764;2023-04-07T11:13:04;10.30;;;8.67;;
2434;SDS011;1228;51.022;6.764;2023-04-07T11:15:31;20.83;;;12.77;;
2434;SDS011;1228;51.022;6.764;2023-04-07T11:18:08;13.97;;;10.37;;
2434;SDS011;1228;51.022;6.764;2023-04-07T11:20:49;14.83;;;10.73;;
2434;SDS011;1228;51.022;6.764;2023-04-07T11:23:16;9.63;;;8.60;;
2434;SDS011;1228;51.022;6.764;2023-04-07T11:25:44;10.63;;;9.53;;
2434;SDS011;1228;51.022;6.764;2023-04-07T11:28:11;11.63;;;10.10;;
2434;SDS011;1228;51.022;6.764;2023-04-07T11:30:38;13.07;;;10.07;;
2434;SDS011;1228;51.022;6.764;2023-04-07T11:33:08;13.20;;;10.83;;
2434;SDS011;1228;51.022;6.764;2023-04-07T11:35:38;14.30;;;8.30;;
2434;SDS011;1228;51.022;6.764;2023-04-07T11:38:22;8.97;;;8.07;;
2434;SDS011;1228;51.022;6.764;2023-04-07T11:41:10;8.77;;;7.97;;
2434;SDS011;1228;51.022;6.764;2023-04-07T11:43:39;9.47;;;8.33;;
2434;SDS011;1228;51.022;6.764;2023-04-07T11:48:36;8.63;;;7.40;;
2434;SDS011;1228;51.022;6.764;2023-04-07T11:51:03;8.33;;;7.50;;
2434;SDS011;1228;51.022;6.764;2023-04-07T11:53:31;9.03;;;8.00;;
2434;SDS011;1228;51.022;6.764;2023-04-07T11:56:08;10.20;;;6.93;;
2434;SDS011;1228;51.022;6.764;2023-04-07T11:58:45;6.70;;;6.10;;
2434;SDS011;1228;51.022;6.764;2023-04-07T12:01:17;7.03;;;6.47;;
2434;SDS011;1228;51.022;6.764;2023-04-07T12:03:57;7.17;;;6.67;;
2434;SDS011;1228;51.022;6.764;2023-04-07T12:08:59;8.47;;;7.60;;
2434;SDS011;1228;51.022;6.764;2023-04-07T12:11:26;11.67;;;8.33;;
2434;SDS011;1228;51.022;6.764;2023-04-07T12:13:52;10.20;;;6.67;;
2434;SDS011;1228;51.022;6.764;2023-04-07T12:16:19;12.20;;;7.67;;
2434;SDS011;1228;51.022;6.764;2023-04-07T12:18:45;9.17;;;8.23;;
2434;SDS011;1228;51.022;6.764;2023-04-07T12:21:10;8.37;;;7.67;;
2434;SDS011;1228;51.022;6.764;2023-04-07T12:23:36;8.87;;;7.90;;
2434;SDS011;1228;51.022;6.764;2023-04-07T12:26:02;8.17;;;7.37;;
2434;SDS011;1228;51.022;6.764;2023-04-07T12:28:27;9.30;;;7.40;;
2434;SDS011;1228;51.022;6.764;2023-04-07T12:30:53;8.57;;;7.70;;
2434;SDS011;1228;51.022;6.764;2023-04-07T12:33:19;9.87;;;8.10;;
2434;SDS011;1228;51.022;6.764;2023-04-07T12:35:46;10.40;;;9.43;;
2434;SDS011;1228;51.022;6.764;2023-04-07T12:38:11;10.07;;;9.03;;
2434;SDS011;1228;51.022;6.764;2023-04-07T12:40:37;9.50;;;8.57;;
2434;SDS011;1228;51.022;6.764;2023-04-07T12:43:04;9.33;;;8.43;;
2434;SDS011;1228;51.022;6.764;2023-04-07T12:45:30;9.47;;;8.53;;
2434;SDS011;1228;51.022;6.764;2023-04-07T12:47:56;8.97;;;7.23;;
2434;SDS011;1228;51.022;6.764;2023-04-07T12:50:22;10.10;;;8.97;;
2434;SDS011;1228;51.022;6.764;2023-04-07T12:52:49;8.63;;;7.30;;
2434;SDS011;1228;51.022;6.764;2023-04-07T12:55:15;8.97;;;8.17;;
2434;SDS011;1228;51.022;6.764;2023-04-07T12:57:41;10.00;;;8.67;;
2434;SDS011;1228;51.022;6.764;2023-04-07T13:00:08;12.50;;;9.03;;
2434;SDS011;1228;51.022;6.764;2023-04-07T13:02:34;8.10;;;7.37;;
2434;SDS011;1228;51.022;6.764;2023-04-07T13:05:01;8.00;;;7.30;;
2434;SDS011;1228;51.022;6.764;2023-04-07T13:07:27;9.10;;;7.63;;
2434;SDS011;1228;51.022;6.764;2023-04-07T13:09:52;10.60;;;8.10;;
2434;SDS011;1228;51.022;6.764;2023-04-07T13:12:18;7.67;;;6.97;;
2434;SDS011;1228;51.022;6.764;2023-04-07T13:14:44;8.40;;;7.20;;
2434;SDS011;1228;51.022;6.764;2023-04-07T13:17:10;10.03;;;7.30;;
2434;SDS011;1228;51.022;6.764;2023-04-07T13:19:36;7.93;;;7.13;;
2434;SDS011;1228;51.022;6.764;2023-04-07T13:22:02;8.27;;;7.67;;
2434;SDS011;1228;51.022;6.764;2023-04-07T13:24:27;7.63;;;6.60;;
2434;SDS011;1228;51.022;6.764;2023-04-07T13:26:53;7.97;;;7.03;;
2434;SDS011;1228;51.022;6.764;2023-04-07T13:29:21;8.33;;;7.00;;
2434;SDS011;1228;51.022;6.764;2023-04-07T13:31:46;8.07;;;7.27;;
2434;SDS011;1228;51.022;6.764;2023-04-07T13:34:13;8.30;;;7.40;;
2434;SDS011;1228;51.022;6.764;2023-04-07T13:36:39;8.53;;;7.60;;
2434;SDS011;1228;51.022;6.764;2023-04-07T13:39:05;11.40;;;6.67;;
2434;SDS011;1228;51.022;6.764;2023-04-07T13:41:31;8.03;;;7.33;;
2434;SDS011;1228;51.022;6.764;2023-04-07T13:43:57;9.13;;;8.30;;
2434;SDS011;1228;51.022;6.764;2023-04-07T13:46:24;15.13;;;8.87;;
2434;SDS011;1228;51.022;6.764;2023-04-07T13:48:51;9.33;;;8.37;;
2434;SDS011;1228;51.022;6.764;2023-04-07T13:51:17;11.00;;;8.07;;
2434;SDS011;1228;51.022;6.764;2023-04-07T13:53:43;8.77;;;7.97;;
2434;SDS011;1228;51.022;6.764;2023-04-07T13:56:09;10.77;;;7.60;;
2434;SDS011;1228;51.022;6.764;2023-04-07T13:58:35;8.80;;;7.77;;
2434;SDS011;1228;51.022;6.764;2023-04-07T14:01:00;10.80;;;7.27;;
2434;SDS011;1228;51.022;6.764;2023-04-07T14:03:27;9.50;;;7.90;;
2434;SDS011;1228;51.022;6.764;2023-04-07T14:05:53;10.30;;;9.10;;
2434;SDS011;1228;51.022;6.764;2023-04-07T14:08:19;9.63;;;7.70;;
2434;SDS011;1228;51.022;6.764;2023-04-07T14:10:47;8.90;;;8.00;;
2434;SDS011;1228;51.022;6.764;2023-04-07T14:13:13;7.30;;;6.60;;
2434;SDS011;1228;51.022;6.764;2023-04-07T14:15:39;7.50;;;6.90;;
2434;SDS011;1228;51.022;6.764;2023-04-07T14:18:05;8.10;;;7.40;;
2434;SDS011;1228;51.022;6.764;2023-04-07T14:20:31;7.87;;;6.30;;
2434;SDS011;1228;51.022;6.764;2023-04-07T14:22:57;8.30;;;6.97;;
2434;SDS011;1228;51.022;6.764;2023-04-07T14:25:23;8.77;;;6.87;;
2434;SDS011;1228;51.022;6.764;2023-04-07T14:27:49;7.33;;;6.73;;
2434;SDS011;1228;51.022;6.764;2023-04-07T14:30:16;8.83;;;7.63;;
2434;SDS011;1228;51.022;6.764;2023-04-07T14:32:42;8.00;;;7.30;;
2434;SDS011;1228;51.022;6.764;2023-04-07T14:35:07;8.27;;;7.33;;
2434;SDS011;1228;51.022;6.764;2023-04-07T14:37:33;6.73;;;6.23;;
2434;SDS011;1228;51.022;6.764;2023-04-07T14:40:00;7.17;;;6.50;;
2434;SDS011;1228;51.022;6.764;2023-04-07T14:42:26;7.43;;;6.53;;
2434;SDS011;1228;51.022;6.764;2023-04-07T14:44:53;7.23;;;6.73;;
2434;SDS011;1228;51.022;6.764;2023-04-07T14:47:19;9.00;;;8.13;;
2434;SDS011;1228;51.022;6.764;2023-04-07T14:49:45;9.20;;;7.03;;
2434;SDS011;1228;51.022;6.764;2023-04-07T14:52:11;7.33;;;6.73;;
2434;SDS011;1228;51.022;6.764;2023-04-07T14:54:38;7.23;;;6.57;;
2434;SDS011;1228;51.022;6.764;2023-04-07T14:57:03;6.43;;;5.83;;
2434;SDS011;1228;51.022;6.764;2023-04-07T14:59:29;6.53;;;5.93;;
2434;SDS011;1228;51.022;6.764;2023-04-07T15:01:55;6.20;;;5.80;;
2434;SDS011;1228;51.022;6.764;2023-04-07T15:04:21;7.67;;;6.97;;
2434;SDS011;1228;51.022;6.764;2023-04-07T15:06:46;9.80;;;6.90;;
2434;SDS011;1228;51.022;6.764;2023-04-07T15:09:12;10.20;;;9.50;;
2434;SDS011;1228;51.022;6.764;2023-04-07T15:11:37;7.53;;;6.80;;
2434;SDS011;1228;51.022;6.764;2023-04-07T15:14:03;7.20;;;6.60;;
2434;SDS011;1228;51.022;6.764;2023-04-07T15:16:30;7.23;;;6.60;;
2434;SDS011;1228;51.022;6.764;2023-04-07T15:18:56;7.10;;;6.50;;
2434;SDS011;1228;51.022;6.764;2023-04-07T15:21:22;7.73;;;7.03;;
2434;SDS011;1228;51.022;6.764;2023-04-07T15:23:47;10.17;;;8.33;;